Time;durP1;ratioP1;P1;durP2;ratioP2;P2;SDS_P1;SDS_P2;PMS_P1;PMS_P2;Temp;Humidity;BMP_temperature;BMP_pressure;BME280_temperature;BME280_humidity;BME280_pressure;Samples;Min_cycle;Max_cycle;Signal;HPM_P1;HPM_P2
2023/03/15 00:00:20;;;;;;;7.35;5.05;;;;;;;3.24;93.36;101098.50;5030511;28;20053;-56
2023/03/15 00:02:45;;;;;;;8.05;5.93;;;;;;;3.24;93.94;101101.97;5032754;28;20025;-55
2023/03/15 00:05:11;;;;;;;7.07;6.35;;;;;;;3.38;93.63;101105.06;5031923;28;20041;-55
2023/03/15 00:07:37;;;;;;;6.03;5.53;;;;;;;3.41;93.81;101101.47;5032014;28;20021;-55
2023/03/15 00:10:03;;;;;;;6.60;6.07;;;;;;;3.45;92.90;101099.63;5015358;28;20710;-55
2023/03/15 00:12:29;;;;;;;6.57;5.55;;;;;;;3.38;93.76;101091.94;5029824;28;20021;-55
2023/03/15 00:14:54;;;;;;;5.78;5.07;;;;;;;3.34;94.27;101086.78;5029350;28;20036;-55
2023/03/15 00:17:21;;;;;;;6.55;5.70;;;;;;;3.37;94.41;101095.44;5030121;28;20068;-55
2023/03/15 00:19:49;;;;;;;7.18;6.57;;;;;;;3.41;93.90;101096.19;5029829;28;20037;-55
2023/03/15 00:22:15;;;;;;;6.82;5.85;;;;;;;3.49;94.35;101109.13;5014886;28;20025;-55
2023/03/15 00:24:40;;;;;;;7.93;5.70;;;;;;;3.58;93.14;101099.19;5026840;28;20071;-55
2023/03/15 00:27:05;;;;;;;7.25;5.30;;;;;;;3.63;93.08;101105.19;5026473;28;20029;-55
2023/03/15 00:29:31;;;;;;;5.60;5.00;;;;;;;3.66;93.45;101106.88;5030540;28;20040;-55
2023/03/15 00:31:59;;;;;;;7.47;6.78;;;;;;;3.58;93.49;101111.50;5045923;28;20046;-55
2023/03/15 00:34:27;;;;;;;8.40;6.07;;;;;;;3.72;92.79;101119.84;5030754;28;20030;-55
2023/03/15 00:36:55;;;;;;;9.00;5.78;;;;;;;3.70;91.77;101116.38;5041123;28;20033;-55
2023/03/15 00:39:20;;;;;;;6.25;5.65;;;;;;;3.73;91.16;101111.03;5049471;28;20065;-56
2023/03/15 00:41:45;;;;;;;8.18;5.65;;;;;;;3.75;91.55;101111.00;5047950;28;20102;-56
2023/03/15 00:44:11;;;;;;;6.70;5.65;;;;;;;3.61;91.72;101107.00;5030178;28;20025;-56
2023/03/15 00:46:36;;;;;;;6.60;6.10;;;;;;;3.67;92.31;101118.25;5031938;28;20025;-55
2023/03/15 00:49:05;;;;;;;7.32;6.30;;;;;;;3.73;92.37;101115.44;5032651;28;20031;-55
2023/03/15 00:51:30;;;;;;;5.80;5.28;;;;;;;3.74;91.22;101107.50;5030404;28;20032;-56
2023/03/15 00:53:56;;;;;;;6.93;6.32;;;;;;;3.66;92.51;101112.13;5030683;28;20040;-55
2023/03/15 00:56:24;;;;;;;6.53;5.82;;;;;;;3.77;91.75;101107.41;5012975;28;20035;-55
2023/03/15 00:58:53;;;;;;;6.18;5.68;;;;;;;3.79;92.21;101096.81;5029662;28;20527;-55
2023/03/15 01:01:24;;;;;;;7.82;7.13;;;;;;;3.80;92.35;101091.53;5029364;28;20123;-55
2023/03/15 01:03:50;;;;;;;7.47;6.68;;;;;;;3.84;92.40;101103.66;5029883;28;20021;-55
2023/03/15 01:06:24;;;;;;;7.22;6.53;;;;;;;3.79;92.14;101108.19;5030622;28;20072;-55
2023/03/15 01:08:51;;;;;;;8.60;6.28;;;;;;;3.77;91.93;101096.88;5028642;28;20028;-55
2023/03/15 01:11:19;;;;;;;10.63;6.78;;;;;;;3.70;92.17;101102.38;5031549;28;20033;-55
2023/03/15 01:13:44;;;;;;;8.65;7.63;;;;;;;3.68;91.99;101112.94;5031168;28;20464;-55
2023/03/15 01:16:12;;;;;;;8.85;7.35;;;;;;;3.65;93.32;101118.31;5027058;28;20030;-55
2023/03/15 01:18:41;;;;;;;10.63;7.90;;;;;;;3.58;92.64;101114.13;5032007;28;20109;-56
2023/03/15 01:21:09;;;;;;;9.88;7.45;;;;;;;3.64;93.29;101127.09;5029248;28;20025;-55
2023/03/15 01:23:36;;;;;;;11.15;9.75;;;;;;;3.47;94.03;101126.72;5043483;28;20033;-56
2023/03/15 01:26:07;;;;;;;13.23;9.85;;;;;;;3.46;94.36;101125.84;5030138;28;20017;-55
2023/03/15 01:28:33;;;;;;;14.48;11.98;;;;;;;3.38;94.25;101112.97;5030104;28;20040;-55
2023/03/15 01:30:58;;;;;;;13.07;10.60;;;;;;;3.46;93.25;101119.75;5029785;28;20026;-55
2023/03/15 01:40:12;;;;;;;13.98;12.45;;;;;;;3.42;93.43;101140.00;5031310;28;20092;-55
2023/03/15 01:43:09;;;;;;;;;;;;;;;3.47;92.29;101148.63;5027430;28;20069;-55
2023/03/15 01:46:05;;;;;;;13.18;11.70;;;;;;;3.43;93.10;101146.97;5030920;28;19909;-55
2023/03/15 01:48:47;;;;;;;13.60;12.20;;;;;;;3.33;93.40;101148.16;5031826;28;20029;-55
2023/03/15 01:51:12;;;;;;;15.07;13.60;;;;;;;3.27;94.07;101141.31;5030530;28;20108;-55
2023/03/15 01:53:41;;;;;;;17.52;14.68;;;;;;;3.23;94.48;101142.28;5029216;28;20120;-55
2023/03/15 01:56:08;;;;;;;17.00;15.30;;;;;;;3.18;94.89;101133.69;5030566;28;20022;-55
2023/03/15 01:58:37;;;;;;;17.02;15.52;;;;;;;3.23;95.01;101142.28;5027067;28;20497;-55
2023/03/15 02:01:03;;;;;;;19.08;15.32;;;;;;;3.21;95.14;101146.75;5022191;28;20386;-55
2023/03/15 02:03:34;;;;;;;16.95;15.15;;;;;;;3.29;96.47;101157.88;5031544;28;20120;-55
2023/03/15 02:06:07;;;;;;;17.73;15.85;;;;;;;3.34;96.08;101157.75;5027251;28;20064;-55
2023/03/15 02:08:38;;;;;;;20.10;18.10;;;;;;;3.27;96.17;101157.09;5025989;28;20385;-55
2023/03/15 02:11:04;;;;;;;17.05;15.45;;;;;;;3.31;95.84;101174.47;5031515;28;20025;-55
2023/03/15 02:13:32;;;;;;;17.88;16.02;;;;;;;3.36;96.89;101172.59;5031664;28;20030;-55
2023/03/15 02:15:58;;;;;;;19.38;16.55;;;;;;;3.37;96.75;101181.34;5031253;28;20063;-55
2023/03/15 02:18:24;;;;;;;19.63;17.98;;;;;;;3.30;96.90;101174.53;5029430;28;20029;-55
2023/03/15 02:20:52;;;;;;;20.33;16.50;;;;;;;3.29;96.74;101176.28;5028453;28;20525;-55
2023/03/15 02:23:20;;;;;;;19.15;17.13;;;;;;;3.10;97.08;101175.94;5027800;28;20499;-55
2023/03/15 02:26:25;;;;;;;20.92;18.88;;;;;;;3.19;97.50;101180.94;5010317;28;20048;-56
2023/03/15 02:28:54;;;;;;;17.63;15.93;;;;;;;3.16;97.55;101175.75;5022083;28;20088;-55
2023/03/15 02:31:20;;;;;;;19.95;18.02;;;;;;;3.23;97.80;101173.81;5049560;28;20036;-55
2023/03/15 02:33:49;;;;;;;19.70;17.73;;;;;;;3.16;97.53;101178.41;5048779;28;20024;-55
2023/03/15 02:36:26;;;;;;;19.00;17.20;;;;;;;3.05;97.93;101171.69;5042339;28;20079;-55
2023/03/15 02:38:52;;;;;;;18.80;16.95;;;;;;;3.02;98.25;101180.53;5036501;28;20055;-55
2023/03/15 02:41:24;;;;;;;17.88;16.23;;;;;;;2.99;99.13;101185.00;5050622;28;20102;-55
2023/03/15 02:43:55;;;;;;;19.60;17.63;;;;;;;3.07;98.64;101189.16;5053995;28;20025;-56
2023/03/15 02:46:21;;;;;;;17.63;16.02;;;;;;;3.03;98.75;101184.00;5050550;28;20031;-55
2023/03/15 02:48:48;;;;;;;15.77;14.18;;;;;;;3.01;98.02;101184.06;5032545;28;20037;-55
2023/03/15 02:51:23;;;;;;;18.00;16.33;;;;;;;3.07;98.59;101197.03;5048275;28;20040;-56
2023/03/15 02:53:48;;;;;;;17.55;15.85;;;;;;;2.96;98.07;101196.44;5052539;28;20031;-56
2023/03/15 02:56:15;;;;;;;16.48;14.93;;;;;;;2.88;98.17;101180.91;5042881;28;20045;-56
2023/03/15 02:58:45;;;;;;;17.42;15.90;;;;;;;2.96;98.14;101196.44;5047725;28;20048;-56
2023/03/15 03:01:12;;;;;;;18.20;16.60;;;;;;;2.99;97.92;101193.75;5051666;28;20076;-55
2023/03/15 03:03:42;;;;;;;16.70;15.15;;;;;;;3.09;97.69;101212.75;5052636;28;20021;-55
2023/03/15 03:06:09;;;;;;;18.33;16.73;;;;;;;3.05;97.13;101201.47;5052234;28;20025;-56
2023/03/15 03:08:35;;;;;;;15.15;13.75;;;;;;;3.09;96.61;101215.38;5018255;28;20048;-55
2023/03/15 03:11:01;;;;;;;17.42;15.85;;;;;;;3.03;96.89;101219.06;5053016;28;20021;-55
2023/03/15 03:13:27;;;;;;;15.85;14.35;;;;;;;3.02;95.79;101222.56;5053132;28;20036;-56
2023/03/15 03:15:57;;;;;;;18.98;17.33;;;;;;;3.01;95.90;101238.38;5051765;28;20060;-55
2023/03/15 03:18:28;;;;;;;16.05;14.80;;;;;;;3.01;95.78;101243.63;5051953;28;20446;-55
2023/03/15 03:20:58;;;;;;;16.38;15.07;;;;;;;3.03;96.02;101244.44;5015184;28;20035;-55
2023/03/15 03:23:26;;;;;;;16.33;14.93;;;;;;;3.05;95.49;101245.28;5051980;28;20533;-55
2023/03/15 03:25:53;;;;;;;16.42;15.02;;;;;;;3.02;95.32;101247.97;5033448;28;20029;-56
2023/03/15 03:28:19;;;;;;;16.58;15.13;;;;;;;2.99;95.19;101259.41;5048364;28;20039;-55
2023/03/15 03:30:45;;;;;;;17.67;16.08;;;;;;;2.91;94.62;101259.63;5052623;28;20056;-55
2023/03/15 03:33:10;;;;;;;17.08;15.60;;;;;;;2.86;95.24;101250.13;5049508;28;20111;-56
2023/03/15 03:35:35;;;;;;;17.90;16.30;;;;;;;2.77;95.42;101243.34;5052442;28;20033;-56
2023/03/15 03:38:01;;;;;;;17.45;15.90;;;;;;;2.80;94.72;101260.78;5054017;28;20029;-55
2023/03/15 03:40:26;;;;;;;18.23;16.65;;;;;;;2.71;94.65;101257.50;5030911;28;20437;-56
2023/03/15 03:42:51;;;;;;;15.23;13.73;;;;;;;2.63;94.78;101262.06;5032283;28;20033;-56
2023/03/15 03:45:17;;;;;;;17.95;16.15;;;;;;;2.61;95.15;101282.22;5031971;28;20425;-55
2023/03/15 03:47:42;;;;;;;15.55;14.07;;;;;;;2.65;95.07;101283.91;5030610;28;20073;-55
2023/03/15 03:50:10;;;;;;;18.23;16.52;;;;;;;2.57;94.39;101283.19;5028909;28;20036;-56
2023/03/15 03:52:35;;;;;;;16.27;14.70;;;;;;;2.54;94.92;101282.41;5033436;28;20049;-55
2023/03/15 03:55:00;;;;;;;17.27;15.52;;;;;;;2.54;94.77;101287.66;5030698;28;20072;-55
2023/03/15 03:57:26;;;;;;;18.15;16.55;;;;;;;2.51;95.52;101280.72;5031939;28;20029;-56
2023/03/15 03:59:51;;;;;;;16.00;14.57;;;;;;;2.53;95.63;101286.81;5031529;28;20508;-55
2023/03/15 04:02:17;;;;;;;18.25;16.65;;;;;;;2.39;94.80;101288.88;5032191;28;20132;-55
2023/03/15 04:04:42;;;;;;;15.48;13.88;;;;;;;2.43;94.54;101299.25;5032067;28;20029;-55
2023/03/15 04:07:08;;;;;;;17.80;16.20;;;;;;;2.36;94.46;101297.66;5033804;28;20030;-55
2023/03/15 04:09:36;;;;;;;16.98;15.40;;;;;;;2.31;94.19;101301.28;5030004;28;20029;-55
2023/03/15 04:12:02;;;;;;;17.73;14.43;;;;;;;2.35;94.20;101310.81;5029890;28;20075;-55
2023/03/15 04:14:28;;;;;;;18.27;16.58;;;;;;;2.29;94.68;101314.44;5031444;28;20112;-55
2023/03/15 04:16:53;;;;;;;18.40;16.80;;;;;;;2.26;94.57;101311.88;5033344;28;20441;-55
2023/03/15 04:19:19;;;;;;;16.95;15.35;;;;;;;2.36;94.58;101323.06;5031346;28;20113;-55
2023/03/15 04:21:46;;;;;;;17.27;15.77;;;;;;;2.20;93.78;101328.59;5026117;28;20025;-56
2023/03/15 04:24:13;;;;;;;17.15;15.52;;;;;;;2.11;93.88;101320.94;5032836;28;20029;-55
2023/03/15 04:26:40;;;;;;;16.67;15.02;;;;;;;2.15;94.57;101333.09;5032178;28;20049;-56
2023/03/15 04:29:06;;;;;;;17.20;15.43;;;;;;;2.12;93.92;101329.66;5031196;28;20067;-55
2023/03/15 04:31:36;;;;;;;17.15;15.35;;;;;;;2.16;93.98;101339.22;5045874;28;20033;-55
2023/03/15 04:34:02;;;;;;;;;;;;;;;2.21;93.30;101335.59;5031938;28;20036;-56
2023/03/15 04:36:27;;;;;;;15.45;13.85;;;;;;;2.00;93.79;101342.16;5031369;28;19909;-55
2023/03/15 04:39:03;;;;;;;15.73;14.13;;;;;;;1.96;94.04;101352.72;5032788;28;20560;-55
2023/03/15 04:41:28;;;;;;;17.55;15.77;;;;;;;1.89;94.26;101335.38;5038773;28;20682;-55
2023/03/15 04:43:53;;;;;;;17.67;15.82;;;;;;;1.97;94.33;101355.34;5046965;28;20079;-55
2023/03/15 04:46:19;;;;;;;17.52;15.07;;;;;;;2.01;94.60;101353.50;5032099;28;20440;-55
2023/03/15 04:48:44;;;;;;;17.52;15.75;;;;;;;2.00;93.93;101359.63;5031386;28;20071;-55
2023/03/15 04:51:09;;;;;;;16.55;14.85;;;;;;;1.97;93.65;101360.56;5032437;28;20542;-55
2023/03/15 04:53:35;;;;;;;16.80;14.85;;;;;;;1.95;93.77;101370.22;5028520;28;21647;-55
2023/03/15 04:56:00;;;;;;;16.17;14.43;;;;;;;1.94;93.85;101370.25;5030446;28;20021;-56
2023/03/15 04:58:25;;;;;;;16.98;15.32;;;;;;;1.89;93.57;101366.88;5028409;28;20035;-56
2023/03/15 05:00:52;;;;;;;15.30;13.90;;;;;;;1.87;93.28;101374.75;5029480;28;20566;-55
2023/03/15 05:03:18;;;;;;;15.68;14.10;;;;;;;1.88;93.37;101371.22;5032267;28;20456;-55
2023/03/15 05:05:44;;;;;;;16.48;14.45;;;;;;;1.85;94.59;101373.03;5029353;28;20108;-55
2023/03/15 05:08:09;;;;;;;17.85;16.13;;;;;;;1.82;93.97;101373.94;5031218;28;20045;-55
2023/03/15 05:10:35;;;;;;;16.75;15.05;;;;;;;1.81;94.03;101383.59;5029945;28;20030;-55
2023/03/15 05:13:00;;;;;;;15.18;13.77;;;;;;;1.79;93.37;101379.25;5032476;28;20105;-55
2023/03/15 05:15:26;;;;;;;14.55;13.05;;;;;;;1.69;93.63;101375.94;5031566;28;20033;-55
2023/03/15 05:17:54;;;;;;;14.65;12.80;;;;;;;1.70;93.85;101374.19;5032109;28;20040;-55
2023/03/15 05:20:20;;;;;;;16.80;14.30;;;;;;;1.66;93.91;101381.25;5031894;28;20029;-55
2023/03/15 05:22:46;;;;;;;15.38;13.80;;;;;;;1.62;93.54;101389.19;5030986;28;20030;-55
2023/03/15 05:25:12;;;;;;;14.70;13.30;;;;;;;1.68;94.28;101395.19;5028672;28;20022;-55
2023/03/15 05:27:38;;;;;;;16.52;14.93;;;;;;;1.67;93.43;101396.06;5033327;28;20100;-55
2023/03/15 05:30:07;;;;;;;14.98;13.48;;;;;;;1.66;93.31;101398.75;5012979;28;20048;-55
2023/03/15 05:32:33;;;;;;;14.45;12.90;;;;;;;1.68;93.79;101412.69;5030161;28;20507;-55
2023/03/15 05:35:03;;;;;;;15.57;14.10;;;;;;;1.56;94.19;101412.00;5030405;28;20030;-55
2023/03/15 05:37:29;;;;;;;;;;;;;;;1.73;93.08;101410.84;5029000;28;20064;-55
2023/03/15 05:39:54;;;;;;;14.50;12.73;;;;;;;1.66;93.39;101411.84;5028280;28;19913;-55
2023/03/15 05:42:24;;;;;;;15.65;13.55;;;;;;;1.66;93.30;101410.09;5030657;28;20032;-55
2023/03/15 05:44:51;;;;;;;14.02;12.73;;;;;;;1.59;93.20;101408.47;5029989;28;20092;-55
2023/03/15 05:47:19;;;;;;;13.45;12.15;;;;;;;1.63;93.74;101412.75;5031644;28;20049;-55
2023/03/15 05:49:45;;;;;;;15.50;13.43;;;;;;;1.62;93.84;101416.28;5031074;28;20033;-55
2023/03/15 05:52:10;;;;;;;16.53;13.03;;;;;;;1.60;93.08;101412.81;5026308;28;20033;-55
2023/03/15 05:54:36;;;;;;;16.38;14.23;;;;;;;1.45;93.18;101413.06;5031356;28;20025;-55
2023/03/15 05:57:02;;;;;;;14.73;13.23;;;;;;;1.53;93.30;101421.66;5030552;28;20104;-55
2023/03/15 05:59:27;;;;;;;13.70;12.30;;;;;;;1.56;93.25;101443.47;5028528;28;20042;-54
2023/03/15 06:01:52;;;;;;;14.73;13.00;;;;;;;1.52;92.78;101444.38;5029500;28;20076;-55
2023/03/15 06:04:18;;;;;;;15.10;13.50;;;;;;;1.50;92.69;101438.31;5030164;28;20076;-56
2023/03/15 06:06:43;;;;;;;14.43;12.50;;;;;;;1.56;93.29;101447.84;5028274;28;20465;-55
2023/03/15 06:09:09;;;;;;;14.13;12.73;;;;;;;1.45;93.26;101445.38;5029665;28;20033;-55
2023/03/15 06:11:36;;;;;;;16.47;13.60;;;;;;;1.52;93.71;101454.88;5031676;28;20034;-55
2023/03/15 06:14:02;;;;;;;14.93;13.32;;;;;;;1.45;93.65;101445.38;5026976;28;20473;-55
2023/03/15 06:16:27;;;;;;;14.13;12.73;;;;;;;1.47;93.80;101458.44;5029698;28;20036;-55
2023/03/15 06:18:52;;;;;;;14.38;12.68;;;;;;;1.49;93.75;101456.69;5033876;28;20047;-55
2023/03/15 06:21:18;;;;;;;14.90;13.10;;;;;;;1.53;94.25;101460.97;5034017;28;20033;-55
2023/03/15 06:23:43;;;;;;;16.27;13.10;;;;;;;1.57;94.98;101471.41;5031928;28;20052;-55
2023/03/15 06:26:08;;;;;;;16.10;13.80;;;;;;;1.57;94.89;101478.41;5034168;28;20051;-55
2023/03/15 06:28:34;;;;;;;15.07;13.50;;;;;;;1.64;95.62;101487.88;5033603;28;20037;-55
2023/03/15 06:31:11;;;;;;;15.65;13.80;;;;;;;1.67;96.70;101498.31;5032731;28;20061;-55
2023/03/15 06:33:36;;;;;;;15.50;13.90;;;;;;;1.72;97.02;101500.88;5034288;28;20036;-55
2023/03/15 06:36:05;;;;;;;18.27;13.90;;;;;;;1.81;96.92;101503.34;5047109;28;20336;-55
2023/03/15 06:38:30;;;;;;;15.98;14.30;;;;;;;1.86;96.30;101505.91;5048387;28;20052;-55
2023/03/15 06:40:59;;;;;;;16.27;13.57;;;;;;;1.93;96.99;101507.53;5031964;28;20118;-55
2023/03/15 06:43:24;;;;;;;15.15;13.63;;;;;;;2.03;96.62;101517.00;5031842;28;20040;-55
2023/03/15 06:45:52;;;;;;;15.40;13.80;;;;;;;2.08;96.36;101516.91;5032899;28;20392;-56
2023/03/15 06:48:17;;;;;;;15.77;14.20;;;;;;;2.15;96.91;101526.41;5033616;28;20033;-56
2023/03/15 06:50:43;;;;;;;15.23;13.48;;;;;;;2.19;96.42;101528.94;5034495;28;20435;-56
2023/03/15 06:53:08;;;;;;;16.52;13.73;;;;;;;2.13;96.63;101534.28;5034922;28;20072;-55
2023/03/15 06:55:35;;;;;;;17.05;15.38;;;;;;;2.16;96.09;101531.63;5033382;28;20108;-55
2023/03/15 06:58:00;;;;;;;15.65;13.85;;;;;;;2.21;96.74;101534.19;5033552;28;20116;-56
2023/03/15 07:00:26;;;;;;;17.25;14.57;;;;;;;2.15;96.75;101527.28;5028928;28;20175;-55
2023/03/15 07:02:51;;;;;;;16.70;14.95;;;;;;;2.20;97.29;101542.91;5033330;28;20017;-56
2023/03/15 07:05:16;;;;;;;17.92;14.73;;;;;;;2.18;97.07;101534.22;5032615;28;20032;-55
2023/03/15 07:07:42;;;;;;;17.75;15.48;;;;;;;2.26;97.93;101548.06;5031713;28;20029;-55
2023/03/15 07:10:08;;;;;;;17.00;15.10;;;;;;;2.32;97.86;101547.09;5014939;28;20036;-55
2023/03/15 07:12:36;;;;;;;19.15;17.15;;;;;;;2.32;97.90;101555.81;5019779;28;20029;-55
2023/03/15 07:15:02;;;;;;;17.05;15.25;;;;;;;2.38;97.67;101557.47;5032331;28;20029;-55
2023/03/15 07:17:27;;;;;;;16.88;15.07;;;;;;;2.39;98.08;101549.59;5032045;28;20029;-55
2023/03/15 07:19:52;;;;;;;16.85;15.15;;;;;;;2.52;97.47;101571.22;5042632;28;20057;-55
2023/03/15 07:22:18;;;;;;;18.80;16.92;;;;;;;2.61;97.31;101568.44;5048570;28;20032;-55
2023/03/15 07:24:43;;;;;;;15.68;14.18;;;;;;;2.67;97.39;101568.31;5039466;28;20017;-55
2023/03/15 07:27:13;;;;;;;19.45;17.13;;;;;;;2.73;97.55;101578.69;5045201;28;20484;-55
2023/03/15 07:29:39;;;;;;;23.90;15.30;;;;;;;2.88;98.20;101577.56;5032926;28;20064;-55
2023/03/15 07:32:05;;;;;;;16.80;15.07;;;;;;;3.02;98.01;101586.94;5037912;28;20020;-56
2023/03/15 07:34:30;;;;;;;20.40;17.77;;;;;;;3.06;98.21;101596.47;5046735;28;20546;-55
2023/03/15 07:36:56;;;;;;;18.95;17.00;;;;;;;3.00;97.24;101591.34;5034079;28;20388;-56
2023/03/15 07:39:22;;;;;;;18.52;16.63;;;;;;;3.07;97.31;101592.97;5038358;28;20090;-56
2023/03/15 07:41:50;;;;;;;18.35;16.25;;;;;;;3.14;97.63;101597.19;5052466;28;20013;-55
2023/03/15 07:44:16;;;;;;;19.27;14.50;;;;;;;3.17;97.04;101599.75;5042377;28;20017;-55
2023/03/15 07:46:41;;;;;;;17.55;15.80;;;;;;;3.21;97.49;101604.06;5034039;28;20052;-55
2023/03/15 07:49:06;;;;;;;18.27;16.55;;;;;;;3.18;97.48;101601.50;5053806;28;20028;-55
2023/03/15 07:51:32;;;;;;;17.92;15.77;;;;;;;3.46;97.73;101614.94;5053614;28;20024;-55
2023/03/15 07:53:57;;;;;;;19.25;17.38;;;;;;;3.63;96.81;101609.31;5053696;28;20491;-55
2023/03/15 07:56:23;;;;;;;16.85;15.15;;;;;;;3.74;96.60;101619.59;5044542;28;20041;-55
2023/03/15 07:58:48;;;;;;;17.85;15.98;;;;;;;3.83;95.71;101622.03;5032259;28;20022;-55
2023/03/15 08:01:13;;;;;;;15.77;14.27;;;;;;;3.84;94.69;101631.66;5031625;28;20542;-55
2023/03/15 08:03:40;;;;;;;18.02;16.35;;;;;;;3.89;94.71;101635.03;5045068;28;20032;-55
2023/03/15 08:06:06;;;;;;;14.88;13.10;;;;;;;4.07;93.76;101642.50;5046392;28;20487;-55
2023/03/15 08:08:31;;;;;;;17.13;15.32;;;;;;;4.10;93.53;101645.06;5033391;28;20029;-55
2023/03/15 08:10:58;;;;;;;16.02;14.52;;;;;;;4.22;92.77;101646.53;5033059;28;20445;-55
2023/03/15 08:13:24;;;;;;;16.00;14.40;;;;;;;4.34;92.61;101655.91;5031953;28;20017;-56
2023/03/15 08:15:49;;;;;;;16.23;14.27;;;;;;;4.48;92.95;101663.50;5031753;28;20388;-56
2023/03/15 08:18:14;;;;;;;14.07;12.48;;;;;;;4.61;91.42;101658.78;5033343;28;20060;-55
2023/03/15 08:20:42;;;;;;;14.57;13.27;;;;;;;4.75;90.77;101665.41;5033510;28;20479;-55
2023/03/15 08:23:08;;;;;;;13.18;11.85;;;;;;;4.98;89.36;101659.56;5032280;28;20025;-55
2023/03/15 08:25:35;;;;;;;13.90;12.70;;;;;;;4.92;86.65;101648.31;5032764;28;20028;-55
2023/03/15 08:28:02;;;;;;;13.60;12.20;;;;;;;5.10;87.35;101660.13;5033058;28;20032;-56
2023/03/15 08:30:30;;;;;;;13.75;12.45;;;;;;;5.22;88.01;101673.84;5031134;28;20036;-55
2023/03/15 08:32:56;;;;;;;13.52;11.57;;;;;;;5.46;88.31;101684.59;5026839;28;20097;-56
2023/03/15 08:35:21;;;;;;;18.70;11.68;;;;;;;5.42;85.69;101678.56;5029755;28;20116;-55
2023/03/15 08:37:47;;;;;;;11.50;10.45;;;;;;;5.42;86.01;101681.19;5031795;28;20029;-55
2023/03/15 08:40:22;;;;;;;12.43;11.27;;;;;;;5.12;84.83;101692.59;5032276;28;20488;-55
2023/03/15 08:42:53;;;;;;;13.27;11.95;;;;;;;5.28;85.44;101685.13;5031659;28;20033;-55
2023/03/15 08:45:19;;;;;;;11.68;10.52;;;;;;;5.44;85.70;101700.50;5032323;28;20029;-55
2023/03/15 08:47:47;;;;;;;13.68;12.27;;;;;;;5.78;87.02;101702.16;5032923;28;20389;-56
2023/03/15 08:50:14;;;;;;;12.48;11.25;;;;;;;5.96;85.19;101705.19;5031386;28;20111;-55
2023/03/15 08:52:41;;;;;;;13.20;11.93;;;;;;;6.18;84.45;101705.38;5032977;28;20040;-56
2023/03/15 08:55:07;;;;;;;12.50;11.15;;;;;;;6.15;82.64;101703.75;5032115;28;20036;-56
2023/03/15 08:57:33;;;;;;;12.13;10.85;;;;;;;6.22;82.57;101707.91;5032573;28;20404;-56
2023/03/15 09:00:00;;;;;;;11.68;10.68;;;;;;;6.08;80.32;101718.03;5031998;28;20055;-56
2023/03/15 09:02:27;;;;;;;12.68;9.82;;;;;;;5.82;79.18;101716.97;5032478;28;20104;-56
2023/03/15 09:04:52;;;;;;;13.30;10.40;;;;;;;6.03;82.37;101715.53;5031162;28;20029;-56
2023/03/15 09:07:17;;;;;;;10.90;9.77;;;;;;;6.19;80.73;101715.06;5031141;28;20388;-56
2023/03/15 09:09:46;;;;;;;11.05;9.93;;;;;;;6.39;79.88;101710.03;5032076;28;20472;-56
2023/03/15 09:12:17;;;;;;;10.98;9.98;;;;;;;6.74;79.56;101718.59;5032425;28;20100;-56
2023/03/15 09:14:43;;;;;;;11.35;9.80;;;;;;;6.91;80.57;101715.34;5031935;28;20116;-56
2023/03/15 09:17:09;;;;;;;11.57;9.30;;;;;;;7.20;78.63;101717.88;5031118;28;20495;-56
2023/03/15 09:19:35;;;;;;;10.63;9.15;;;;;;;7.28;76.82;101726.41;5032212;28;20388;-56
2023/03/15 09:22:01;;;;;;;9.48;8.52;;;;;;;7.15;73.81;101724.25;5032088;28;20029;-56
2023/03/15 09:24:29;;;;;;;10.57;8.75;;;;;;;7.17;73.97;101714.47;5031831;28;20492;-56
2023/03/15 09:26:54;;;;;;;13.32;9.30;;;;;;;7.30;73.26;101723.72;5032234;28;20052;-56
2023/03/15 09:29:20;;;;;;;12.02;8.68;;;;;;;7.51;74.70;101716.78;5030256;28;20485;-56
2023/03/15 09:31:45;;;;;;;9.90;8.48;;;;;;;7.65;70.88;101732.19;5032007;28;20018;-55
2023/03/15 09:34:11;;;;;;;10.75;8.55;;;;;;;7.94;71.57;101712.53;5031859;28;20060;-56
2023/03/15 09:36:37;;;;;;;10.32;7.20;;;;;;;8.16;70.19;101724.03;5029376;28;20021;-55
2023/03/15 09:39:02;;;;;;;8.23;7.07;;;;;;;7.91;69.92;101717.94;5030372;28;20408;-56
2023/03/15 09:41:42;;;;;;;10.77;7.30;;;;;;;7.71;71.48;101727.50;5030421;28;20476;-56
2023/03/15 09:44:26;;;;;;;9.88;7.65;;;;;;;7.61;67.68;101727.91;5030606;28;20048;-56
2023/03/15 09:47:00;;;;;;;10.88;8.70;;;;;;;7.96;69.05;101729.25;5031915;28;20029;-56
2023/03/15 09:49:54;;;;;;;8.68;7.55;;;;;;;7.92;69.36;101733.78;5030513;28;20037;-55
2023/03/15 09:52:23;;;;;;;12.27;8.52;;;;;;;8.14;67.03;101732.97;5030692;28;20029;-56
2023/03/15 09:54:59;;;;;;;11.85;6.55;;;;;;;8.31;64.69;101732.31;5031613;28;20047;-56
2023/03/15 09:57:52;;;;;;;12.35;5.93;;;;;;;8.39;66.35;101738.22;5031517;28;20017;-56
2023/03/15 10:00:29;;;;;;;10.88;6.25;;;;;;;8.15;64.24;101726.75;5031038;28;20435;-57
2023/03/15 10:02:59;;;;;;;11.60;6.35;;;;;;;8.16;62.08;101742.59;5031611;28;20052;-56
2023/03/15 10:05:41;;;;;;;10.43;6.25;;;;;;;8.22;61.20;101744.13;5031518;28;20484;-56
2023/03/15 10:08:14;;;;;;;12.52;4.85;;;;;;;8.40;60.80;101732.84;5030161;28;20037;-56
2023/03/15 10:10:49;;;;;;;10.52;5.25;;;;;;;8.73;58.58;101737.69;5030486;28;20053;-56
2023/03/15 10:13:37;;;;;;;9.68;4.28;;;;;;;9.04;58.06;101725.81;5031627;28;20033;-56
2023/03/15 10:16:15;;;;;;;10.70;4.20;;;;;;;9.21;58.36;101733.06;5029856;28;20033;-56
2023/03/15 10:19:03;;;;;;;9.05;4.30;;;;;;;9.49;58.29;101728.25;5030536;28;20049;-56
2023/03/15 10:21:40;;;;;;;11.80;5.10;;;;;;;9.59;57.91;101739.34;5019850;28;20033;-56
2023/03/15 10:24:17;;;;;;;11.85;5.15;;;;;;;9.27;53.67;101730.16;5030018;28;20025;-56
2023/03/15 10:26:43;;;;;;;6.30;4.50;;;;;;;9.42;52.12;101737.44;5030199;28;20396;-56
2023/03/15 10:29:14;;;;;;;9.48;4.75;;;;;;;9.41;52.45;101742.81;5031624;28;20029;-56
2023/03/15 10:31:43;;;;;;;9.20;4.13;;;;;;;9.83;50.85;101740.03;5031588;28;20033;-56
2023/03/15 10:34:10;;;;;;;7.80;4.20;;;;;;;9.93;52.68;101738.66;5031457;28;20117;-56
2023/03/15 10:36:35;;;;;;;8.32;3.92;;;;;;;9.97;50.50;101742.94;5029792;28;20380;-56
2023/03/15 10:39:01;;;;;;;6.20;3.80;;;;;;;10.04;51.78;101743.50;5031285;28;20025;-56
2023/03/15 10:41:37;;;;;;;6.80;3.92;;;;;;;10.24;49.60;101743.44;5031086;28;20017;-56
2023/03/15 10:44:16;;;;;;;7.65;4.10;;;;;;;10.30;50.57;101749.44;5030027;28;20056;-56
2023/03/15 10:46:44;;;;;;;6.70;4.00;;;;;;;10.44;48.88;101747.84;5030062;28;20495;-56
2023/03/15 10:49:18;;;;;;;7.55;4.05;;;;;;;10.26;50.34;101756.63;5014063;28;20484;-56
2023/03/15 10:51:46;;;;;;;7.88;3.95;;;;;;;9.54;48.95;101762.59;5029667;28;20036;-56
2023/03/15 10:54:14;;;;;;;5.75;3.60;;;;;;;9.14;48.83;101764.28;5029964;28;20026;-56
2023/03/15 10:56:50;;;;;;;5.32;4.22;;;;;;;8.83;52.62;101754.97;5030251;28;20553;-56
2023/03/15 10:59:23;;;;;;;7.45;4.97;;;;;;;8.88;52.22;101770.69;5030838;28;20025;-56
2023/03/15 11:01:51;;;;;;;6.88;4.63;;;;;;;8.70;49.62;101782.06;5031225;28;20095;-56
2023/03/15 11:04:20;;;;;;;8.52;3.63;;;;;;;9.18;50.90;101780.97;5032699;28;20025;-56
2023/03/15 11:06:48;;;;;;;9.02;4.47;;;;;;;9.68;48.53;101775.28;5034778;28;20110;-56
2023/03/15 11:09:24;;;;;;;4.40;4.00;;;;;;;10.14;50.10;101778.47;5033105;28;20032;-56
2023/03/15 11:11:59;;;;;;;7.20;3.92;;;;;;;10.62;47.93;101783.31;5034630;28;20488;-56
2023/03/15 11:14:34;;;;;;;6.57;3.88;;;;;;;11.21;47.47;101786.63;5033424;28;20025;-56
2023/03/15 11:17:01;;;;;;;6.22;3.20;;;;;;;11.85;46.96;101782.44;5034476;28;20026;-56
2023/03/15 11:19:30;;;;;;;7.15;3.00;;;;;;;12.28;43.79;101783.63;5033993;28;20048;-56
2023/03/15 11:21:58;;;;;;;6.40;2.75;;;;;;;12.67;42.88;101779.66;5033109;28;20021;-56
2023/03/15 11:24:30;;;;;;;5.03;2.60;;;;;;;13.25;40.72;101791.50;5033965;28;20103;-56
2023/03/15 11:27:02;;;;;;;6.28;2.65;;;;;;;13.74;40.92;101796.56;5034245;28;20033;-56
2023/03/15 11:29:34;;;;;;;5.78;2.80;;;;;;;12.92;37.87;101797.81;5032248;28;20022;-56
2023/03/15 11:32:06;;;;;;;6.30;3.20;;;;;;;12.28;40.27;101796.97;5034322;28;20381;-56